createdAt,value
2024-01-04T00:00:52.832Z,7.90
2024-01-04T00:04:57.187Z,7.90
2024-01-04T00:09:00.091Z,7.80
2024-01-04T00:13:03.116Z,7.80
2024-01-04T00:17:05.991Z,7.80
2024-01-04T00:21:13.451Z,7.70
2024-01-04T00:25:16.382Z,7.70
2024-01-04T00:29:19.239Z,7.60
2024-01-04T00:33:22.147Z,7.60
2024-01-04T00:37:26.415Z,7.60
2024-01-04T00:41:29.229Z,7.60
2024-01-04T00:45:32.059Z,7.60
2024-01-04T00:49:35.071Z,7.60
2024-01-04T00:53:39.365Z,7.60
2024-01-04T00:57:42.308Z,7.70
2024-01-04T01:01:45.147Z,7.70
2024-01-04T01:05:51.587Z,7.70
2024-01-04T01:09:55.778Z,7.70
2024-01-04T01:13:58.596Z,7.70
2024-01-04T01:18:02.865Z,7.60
2024-01-04T01:22:05.801Z,7.70
2024-01-04T01:26:15.384Z,7.60
2024-01-04T01:30:18.473Z,7.70
2024-01-04T01:34:21.517Z,7.60
2024-01-04T01:38:25.137Z,7.60
2024-01-04T01:42:29.255Z,7.70
2024-01-04T01:46:32.275Z,7.70
2024-01-04T01:50:36.086Z,7.70
2024-01-04T01:54:40.328Z,7.60
2024-01-04T01:58:44.967Z,7.60
2024-01-04T02:02:49.939Z,7.60
2024-01-04T02:06:53.285Z,7.60
2024-01-04T02:10:56.040Z,7.70
2024-01-04T02:15:00.853Z,7.70
2024-01-04T02:19:04.569Z,7.70
2024-01-04T02:23:11.452Z,7.70
2024-01-04T02:27:14.713Z,7.70
2024-01-04T02:31:17.559Z,7.60
2024-01-04T02:35:20.380Z,7.60
2024-01-04T02:39:24.576Z,7.60
2024-01-04T02:43:27.344Z,7.60
2024-01-04T02:47:30.147Z,7.60
2024-01-04T02:51:33.070Z,7.60
2024-01-04T02:55:37.721Z,7.60
2024-01-04T02:59:40.559Z,7.60
2024-01-04T03:03:43.411Z,7.70
2024-01-04T03:07:46.879Z,7.70
2024-01-04T03:11:51.033Z,7.70
2024-01-04T03:15:53.820Z,7.70
2024-01-04T03:19:56.654Z,7.70
2024-01-04T03:23:59.534Z,7.70
2024-01-04T03:28:03.757Z,7.70
2024-01-04T03:32:07.353Z,7.60
2024-01-04T03:36:12.074Z,7.60
2024-01-04T03:40:14.956Z,7.50
2024-01-04T03:44:19.131Z,7.40
2024-01-04T03:48:22.002Z,7.40
2024-01-04T03:52:26.229Z,7.40
2024-01-04T03:56:29.149Z,7.40
2024-01-04T04:00:33.276Z,7.40
2024-01-04T04:04:36.141Z,7.40
2024-01-04T04:08:39.099Z,7.40
2024-01-04T04:12:42.003Z,7.40
2024-01-04T04:16:46.127Z,7.40
2024-01-04T04:20:48.916Z,7.30
2024-01-04T04:24:51.734Z,7.30
2024-01-04T04:28:54.590Z,7.30
2024-01-04T04:32:58.832Z,7.30
2024-01-04T04:37:04.098Z,7.30
2024-01-04T04:41:08.127Z,7.30
2024-01-04T04:45:11.440Z,7.40
2024-01-04T04:49:15.761Z,7.30
2024-01-04T04:53:18.891Z,7.30
2024-01-04T04:57:21.754Z,7.30
2024-01-04T05:01:25.415Z,7.30
2024-01-04T05:05:30.561Z,7.30
2024-01-04T05:09:33.360Z,7.30
2024-01-04T05:13:36.128Z,7.30
2024-01-04T05:17:38.977Z,7.30
2024-01-04T05:21:43.428Z,7.30
2024-01-04T05:25:46.245Z,7.30
2024-01-04T05:29:49.126Z,7.30
2024-01-04T05:33:52.087Z,7.30
2024-01-04T05:37:56.722Z,7.30
2024-01-04T05:41:59.654Z,7.20
2024-01-04T05:46:04.327Z,7.20
2024-01-04T05:50:08.219Z,7.20
2024-01-04T05:54:12.658Z,7.10
2024-01-04T05:58:15.565Z,7.20
2024-01-04T06:02:18.424Z,7.20
2024-01-04T06:06:21.315Z,7.20
2024-01-04T06:10:25.565Z,7.20
2024-01-04T06:14:31.735Z,7.30
2024-01-04T06:18:34.697Z,7.30
2024-01-04T06:22:37.547Z,7.30
2024-01-04T06:26:41.688Z,7.30
2024-01-04T06:30:46.547Z,7.30
2024-01-04T06:34:49.429Z,7.30
2024-01-04T06:38:52.424Z,7.30
2024-01-04T06:42:57.166Z,7.30
2024-01-04T06:47:00.154Z,7.30
2024-01-04T06:51:02.992Z,7.30
2024-01-04T06:55:06.492Z,7.20
2024-01-04T06:59:10.599Z,7.30
2024-01-04T07:03:13.612Z,7.20
2024-01-04T07:07:16.504Z,7.20
2024-01-04T07:11:19.372Z,7.20
2024-01-04T07:15:23.584Z,7.20
2024-01-04T07:19:26.548Z,7.20
2024-01-04T07:23:29.415Z,7.20
2024-01-04T07:27:32.482Z,7.10
2024-01-04T07:31:37.685Z,7.10
2024-01-04T07:35:40.690Z,7.10
2024-01-04T07:39:43.765Z,7.00
2024-01-04T07:43:46.592Z,6.90
2024-01-04T07:47:50.831Z,6.80
2024-01-04T07:51:54.006Z,6.80
2024-01-04T07:55:57.749Z,6.80
2024-01-04T08:00:00.658Z,6.70
2024-01-04T08:04:05.643Z,6.70
2024-01-04T08:08:08.858Z,6.70
2024-01-04T08:12:13.728Z,6.80
2024-01-04T08:16:16.923Z,6.80
2024-01-04T08:20:21.684Z,6.90
2024-01-04T08:24:24.886Z,6.90
2024-01-04T08:28:27.726Z,6.90
2024-01-04T08:32:30.571Z,6.90
2024-01-04T08:36:35.035Z,7.00
2024-01-04T08:40:39.731Z,6.90
2024-01-04T08:44:42.597Z,6.90
2024-01-04T08:48:45.616Z,6.80
2024-01-04T08:52:49.870Z,6.80
2024-01-04T08:56:53.060Z,6.80
2024-01-04T09:00:57.127Z,6.70
2024-01-04T09:05:00.085Z,6.70
2024-01-04T09:09:06.929Z,6.70
2024-01-04T09:13:09.798Z,6.70
2024-01-04T09:17:12.735Z,6.70
2024-01-04T09:21:16.216Z,6.70
2024-01-04T09:25:20.380Z,6.70
2024-01-04T09:29:23.137Z,6.70
2024-01-04T09:33:26.250Z,6.70
2024-01-04T09:37:29.242Z,6.70
2024-01-04T09:41:34.320Z,6.70
2024-01-04T09:45:40.688Z,6.70
2024-01-04T09:49:45.699Z,6.60
2024-01-04T09:53:48.912Z,6.70
2024-01-04T09:57:53.195Z,6.70
2024-01-04T10:01:56.914Z,6.70
2024-01-04T10:06:01.880Z,6.70
2024-01-04T10:10:14.326Z,6.70
2024-01-04T10:14:18.617Z,6.70
2024-01-04T10:18:23.243Z,6.70
2024-01-04T10:22:26.077Z,6.70
2024-01-04T10:26:29.157Z,6.60
2024-01-04T10:30:34.145Z,6.70
2024-01-04T10:34:38.345Z,6.70
2024-01-04T10:38:41.378Z,6.70
2024-01-04T10:42:54.441Z,6.60
2024-01-04T10:47:00.663Z,6.70
2024-01-04T10:51:05.840Z,6.70
2024-01-04T10:55:09.817Z,6.70
2024-01-04T10:59:13.734Z,6.70
2024-01-04T11:03:19.496Z,6.70
2024-01-04T11:07:23.589Z,6.70
2024-01-04T11:11:27.102Z,6.80
2024-01-04T11:15:30.141Z,6.80
2024-01-04T11:19:46.376Z,6.90
2024-01-04T11:24:02.983Z,6.80
2024-01-04T11:28:09.413Z,6.90
2024-01-04T11:32:12.928Z,6.80
2024-01-04T11:36:21.140Z,6.80
2024-01-04T11:40:28.607Z,6.80
2024-01-04T11:44:37.044Z,6.80
2024-01-04T11:48:49.651Z,6.80
2024-01-04T11:53:03.374Z,6.80
2024-01-04T11:57:18.002Z,6.80
2024-01-04T12:01:26.361Z,6.80
2024-01-04T12:05:32.134Z,6.80
2024-01-04T12:09:36.311Z,6.80
2024-01-04T12:13:39.162Z,6.80
2024-01-04T12:17:42.053Z,6.80
2024-01-04T12:21:46.707Z,6.80
2024-01-04T12:25:51.297Z,6.80
2024-01-04T12:29:54.180Z,6.90
2024-01-04T12:34:00.048Z,6.90
2024-01-04T12:38:08.456Z,6.90
2024-01-04T12:42:14.641Z,6.90
2024-01-04T12:46:23.610Z,6.90
2024-01-04T12:50:26.830Z,6.90
2024-01-04T12:54:29.759Z,6.90
2024-01-04T12:58:34.527Z,6.90
2024-01-04T13:02:37.332Z,6.90
2024-01-04T13:06:40.261Z,6.90
2024-01-04T13:10:43.106Z,6.90
2024-01-04T13:14:47.330Z,6.90
2024-01-04T13:18:50.357Z,6.90
2024-01-04T13:22:53.351Z,6.90
2024-01-04T13:26:56.169Z,6.90
2024-01-04T13:31:00.547Z,6.90
2024-01-04T13:35:03.520Z,6.90
2024-01-04T13:39:06.551Z,6.90
2024-01-04T13:43:09.374Z,7.00
2024-01-04T13:47:13.892Z,7.00
2024-01-04T13:51:20.318Z,7.00
2024-01-04T13:55:25.501Z,7.00
2024-01-04T13:59:31.050Z,7.00
2024-01-04T14:03:35.757Z,6.90
2024-01-04T14:07:40.730Z,6.90
2024-01-04T14:11:48.057Z,6.90
2024-01-04T14:15:51.161Z,6.90
2024-01-04T14:19:55.526Z,6.90
2024-01-04T14:23:58.448Z,6.90
2024-01-04T14:28:01.265Z,6.90
2024-01-04T14:32:05.409Z,6.90
2024-01-04T14:36:10.457Z,6.90
2024-01-04T14:40:17.837Z,6.80
2024-01-04T14:44:22.099Z,6.80
2024-01-04T14:48:26.173Z,6.90
2024-01-04T14:52:31.457Z,6.90
2024-01-04T14:56:37.793Z,6.80
2024-01-04T15:00:40.821Z,6.80
2024-01-04T15:04:43.635Z,6.80
2024-01-04T15:08:50.069Z,6.80
2024-01-04T15:12:52.988Z,6.80
2024-01-04T15:16:55.814Z,6.80
2024-01-04T15:20:58.891Z,6.80
2024-01-04T15:25:07.032Z,6.80
2024-01-04T15:29:10.369Z,6.80
2024-01-04T15:33:13.230Z,6.70
2024-01-04T15:37:17.081Z,6.70
2024-01-04T15:41:21.630Z,6.80
2024-01-04T15:45:25.460Z,6.80
2024-01-04T15:49:31.108Z,6.80
2024-01-04T15:53:34.040Z,6.70
2024-01-04T15:57:38.150Z,6.70
2024-01-04T16:01:41.087Z,6.80
2024-01-04T16:05:43.960Z,6.80
2024-01-04T16:09:47.014Z,6.70
2024-01-04T16:13:51.542Z,6.70
2024-01-04T16:17:54.992Z,6.70
2024-01-04T16:21:58.056Z,6.80
2024-01-04T16:26:00.962Z,6.80
2024-01-04T16:30:05.917Z,6.80
2024-01-04T16:34:08.806Z,6.80
2024-01-04T16:38:11.827Z,6.80
2024-01-04T16:42:14.792Z,6.80
2024-01-04T16:46:21.890Z,6.90
2024-01-04T16:50:24.754Z,6.90
2024-01-04T16:54:27.657Z,6.90
2024-01-04T16:58:31.372Z,6.90
2024-01-04T17:02:37.345Z,7.00
2024-01-04T17:06:40.334Z,7.00
2024-01-04T17:10:43.218Z,7.00
2024-01-04T17:14:46.095Z,6.90
2024-01-04T17:18:50.609Z,7.00
2024-01-04T17:22:53.648Z,7.00
2024-01-04T17:26:56.940Z,7.10
2024-01-04T17:31:05.893Z,7.00
2024-01-04T17:35:10.829Z,6.80
2024-01-04T17:39:14.015Z,6.70
2024-01-04T17:43:18.100Z,6.70
2024-01-04T17:47:20.874Z,6.70
2024-01-04T17:51:25.023Z,6.70
2024-01-04T17:55:28.048Z,6.70
2024-01-04T17:59:31.206Z,6.70
2024-01-04T18:03:34.097Z,6.70
2024-01-04T18:07:38.365Z,6.60
2024-01-04T18:11:41.489Z,6.60
2024-01-04T18:15:44.592Z,6.60
2024-01-04T18:19:48.624Z,6.60
2024-01-04T18:23:52.855Z,6.60
2024-01-04T18:27:55.727Z,6.60
2024-01-04T18:31:59.244Z,6.60
2024-01-04T18:36:02.189Z,6.60
2024-01-04T18:40:07.784Z,6.60
2024-01-04T18:44:10.712Z,6.60
2024-01-04T18:48:13.888Z,6.60
2024-01-04T18:52:16.823Z,6.70
2024-01-04T18:56:20.989Z,6.60
2024-01-04T19:00:23.970Z,6.60
2024-01-04T19:04:28.385Z,6.60
2024-01-04T19:08:31.225Z,6.70
2024-01-04T19:12:35.327Z,6.70
2024-01-04T19:16:42.883Z,6.70
2024-01-04T19:20:45.935Z,6.70
2024-01-04T19:24:48.804Z,6.80
2024-01-04T19:28:52.947Z,6.70
2024-01-04T19:32:55.970Z,6.70
2024-01-04T19:36:58.829Z,6.70
2024-01-04T19:41:01.577Z,6.70
2024-01-04T19:45:07.332Z,6.80
2024-01-04T19:49:10.230Z,6.80
2024-01-04T19:53:13.153Z,6.80
2024-01-04T19:57:16.141Z,6.80
2024-01-04T20:01:20.414Z,6.70
2024-01-04T20:05:23.287Z,6.80
2024-01-04T20:09:26.257Z,6.70
2024-01-04T20:13:29.115Z,6.70
2024-01-04T20:17:34.760Z,6.60
2024-01-04T20:21:41.672Z,6.50
2024-01-04T20:25:44.531Z,6.50
2024-01-04T20:29:47.386Z,6.40
2024-01-04T20:33:51.708Z,6.30
2024-01-04T20:37:54.547Z,6.20
2024-01-04T20:41:57.360Z,6.20
2024-01-04T20:46:00.201Z,6.10
2024-01-04T20:50:04.734Z,6.10
2024-01-04T20:54:10.231Z,6.00
2024-01-04T20:58:14.247Z,6.00
2024-01-04T21:02:17.336Z,5.90
2024-01-04T21:06:21.487Z,5.90
2024-01-04T21:10:24.335Z,5.90
2024-01-04T21:14:28.225Z,5.90
2024-01-04T21:18:31.236Z,5.90
2024-01-04T21:22:35.563Z,6.00
2024-01-04T21:26:38.526Z,6.00
2024-01-04T21:30:44.623Z,6.00
2024-01-04T21:34:47.993Z,6.00
2024-01-04T21:38:54.942Z,6.00
2024-01-04T21:42:57.820Z,6.10
2024-01-04T21:47:00.618Z,6.10
2024-01-04T21:51:03.603Z,6.10
2024-01-04T21:55:08.321Z,6.10
2024-01-04T21:59:11.176Z,6.10
2024-01-04T22:03:14.258Z,6.10
2024-01-04T22:07:19.513Z,6.00
2024-01-04T22:11:23.631Z,6.00
2024-01-04T22:15:26.460Z,6.00
2024-01-04T22:19:29.401Z,6.00
2024-01-04T22:23:32.292Z,5.90
2024-01-04T22:27:36.440Z,5.90
2024-01-04T22:31:39.478Z,5.90
2024-01-04T22:35:42.436Z,6.00
2024-01-04T22:39:45.260Z,6.00
2024-01-04T22:43:49.508Z,6.00
2024-01-04T22:47:52.340Z,6.10
2024-01-04T22:51:55.293Z,6.20
2024-01-04T22:55:58.683Z,6.20
2024-01-04T23:00:03.833Z,6.20
2024-01-04T23:04:06.861Z,6.20
2024-01-04T23:08:09.753Z,6.20
2024-01-04T23:12:12.663Z,6.20
2024-01-04T23:16:16.861Z,6.20
2024-01-04T23:20:19.942Z,6.20
2024-01-04T23:24:22.835Z,6.20
2024-01-04T23:28:25.829Z,6.30
2024-01-04T23:32:29.985Z,6.30
2024-01-04T23:36:33.388Z,6.40
2024-01-04T23:40:36.281Z,6.50
2024-01-04T23:44:39.056Z,6.50
2024-01-04T23:48:43.799Z,6.50
2024-01-04T23:52:46.749Z,6.50
2024-01-04T23:56:49.597Z,6.50
